x

Central Caribbean - 210 Nm Sse Of Kingston, Jamaica (42058) Weather Station

2:20pm - Fri 26th May 2017 All times are EST. -5 hours from GMT.

  • Wind
    22mph, 29mph gusts
  • Sea Temp 83°f
  • Sea Pressure 1013mb
  • Central Caribbean - 210 Nm Sse Of Kingston, Jamaica
  • Central Caribbean - 210 Nm Sse Of Kingston, Jamaica

More Historic Weather Station data

Upgrade to MSW Pro to gain access to the past 30 days of data for over 8000 Wavebouys and Weather Stations around the globe.

Join Pro

Comparision Forecast

View Surf forecast
   
Fri 05/26 2:20pm  -   -   -  22 29 mph 1013mb 83f
2:10pm  -   -   -  22 27 mph 1013.1mb 83f
2:00pm  -   -   -  22 29 mph 1013.1mb 83f
1:50pm 10ft 9s 6s 22 29 mph 1013.1mb 83f
1:40pm 10ft  -  6s 22 27 mph 1013.4mb 83f
1:30pm  -   -   -  22 27 mph 1013.5mb 83f
1:20pm  -   -   -  22 29 mph 1013.5mb 82f
1:10pm  -   -   -  22 29 mph 1013.6mb 82f
1:00pm  -   -   -  22 29 mph 1013.9mb 82f
12:30pm  -   -   -  22 31 mph 1014.1mb 82f
12:20pm  -   -   -  22 27 mph 1014.4mb 82f
12:10pm  -   -   -  22 27 mph 1014.5mb 82f
12:00pm  -   -   -  22 29 mph 1014.8mb 82f
11:50am 10.5ft 9s 6s 22 29 mph 1014.9mb 82f
11:40am  -   -   -  20 27 mph 1015mb 82f
11:30am  -   -   -  25 31 mph 1014.9mb 82f
11:20am  -   -   -  22 29 mph 1015mb 82f
11:10am  -   -   -  22 29 mph 1015mb 82f
11:00am  -   -   -  22 29 mph 1015mb 82f
10:50am 10ft 9s 6s 22 29 mph 1015.3mb 82f
10:40am  -   -   -  22 29 mph 1015.3mb 82f
10:30am  -   -   -  25 31 mph 1015.4mb 82f
10:20am  -   -   -  27 31 mph 1015mb 82f
10:10am  -   -   -  25 34 mph 1015mb 82f
10:00am  -   -   -  27 34 mph 1015mb 82f
9:50am 9.5ft 8s 6s 27 34 mph 1015mb 82f
9:40am  -   -   -  27 31 mph 1014.9mb 82f
9:30am  -   -   -  27 34 mph 1014.8mb 82f
9:20am  -   -   -  27 34 mph 1014.5mb 82f
9:10am  -   -   -  27 34 mph 1014.6mb 82f
9:00am  -   -   -  27 34 mph 1014.5mb 82f
8:50am 10.5ft 9s 7s 29 36 mph 1014.5mb 82f
8:40am  -   -   -  27 34 mph 1014.5mb 82f
8:30am  -   -   -  27 34 mph 1014.3mb 82f
8:20am  -   -   -  27 34 mph 1014.3mb 82f
8:10am  -   -   -  29 34 mph 1014.1mb 82f
8:00am  -   -   -  27 31 mph 1014.1mb 82f
7:50am 10.5ft 9s 6s 27 34 mph 1014.1mb 82f
7:40am 10.5ft  -  6s 27 34 mph 1014mb 82f
7:30am  -   -   -  27 34 mph 1014mb 82f
7:20am  -   -   -  27 34 mph 1013.9mb 82f
7:10am  -   -   -  27 36 mph 1013.6mb 82f
7:00am  -   -   -  29 36 mph 1013.5mb 82f
6:50am 11ft 9s 7s 29 34 mph 1013.4mb 82f
6:40am 11ft  -  7s 29 36 mph 1013.3mb 82f
6:30am  -   -   -  27 34 mph 1013.1mb 82f
6:20am  -   -   -  27 31 mph 1013.3mb 82f
6:10am  -   -   -  27 34 mph 1013.1mb 82f
6:00am  -   -   -  27 36 mph 1013mb 82f
5:50am 10.5ft 9s 6s 27 34 mph 1012.9mb 82f
5:40am 10.5ft  -  6s 27 34 mph 1012.9mb 82f
5:30am  -   -   -  27 34 mph 1012.6mb 82f
5:20am  -   -   -  27 34 mph 1012.5mb 82f
5:10am  -   -   -  27 36 mph 1012.5mb 82f
5:00am  -   -   -  27 31 mph 1012.5mb -
4:50am 10ft 9s 6s 25 34 mph 1012.5mb 82f
4:40am  -   -   -  27 34 mph 1012.5mb 82f
4:30am  -   -   -  27 34 mph 1012.4mb 82f
4:20am  -   -   -  27 34 mph 1012.3mb 82f
4:10am  -   -   -  27 34 mph 1012mb 82f
4:00am  -   -   -  27 36 mph 1012mb 82f
3:50am 11ft 9s 7s 27 34 mph 1011.8mb 82f
3:40am  -   -   -  27 34 mph 1011.9mb 82f
3:30am  -   -   -  29 36 mph 1011.6mb 82f
3:20am  -   -   -  27 34 mph 1011.5mb 82f
3:10am  -   -   -  29 36 mph 1011.5mb 82f
3:00am  -   -   -  27 34 mph 1011.5mb 82f
2:50am 10ft 9s 6s 27 34 mph 1011.6mb 82f
2:40am 10ft  -  6s 27 34 mph 1011.8mb 82f
2:30am  -   -   -  29 36 mph 1011.8mb 82f
2:20am  -   -   -  27 34 mph 1011.6mb 82f
2:10am  -   -   -  27 36 mph 1011.6mb 82f
2:00am  -   -   -  27 34 mph 1011.8mb 82f
1:50am 11ft 9s 7s 27 31 mph 1011.8mb 82f
1:40am  -   -   -  29 36 mph 1011.6mb 82f
1:30am  -   -   -  27 34 mph 1011.6mb 82f
1:20am  -   -   -  29 36 mph 1011.5mb 82f
1:10am  -   -   -  29 38 mph 1011.8mb 82f
1:00am  -   -   -  27 34 mph 1011.9mb 82f
12:50am 10.5ft 9s 6s 27 36 mph 1012mb 82f
12:40am  -   -   -  29 36 mph 1012mb 82f
12:30am  -   -   -  29 36 mph 1012mb 82f
12:20am  -   -   -  27 36 mph 1012.3mb 82f
12:10am  -   -   -  29 36 mph 1012.4mb 82f
12:00am  -   -   -  27 34 mph 1012.5mb 82f
Thu 05/25 11:50pm 11ft 9s 6s 29 36 mph 1012.9mb 82f
11:40pm  -   -   -  27 36 mph 1012.9mb 82f
11:30pm  -   -   -  29 36 mph 1013mb 82f
11:20pm  -   -   -  27 34 mph 1013mb 82f
11:10pm  -   -   -  27 34 mph 1013mb 82f
11:00pm  -   -   -  27 34 mph 1013mb 82f
10:50pm 11ft 9s 6s 29 38 mph 1012.9mb 82f
10:40pm 11ft  -  6s 29 38 mph 1012.9mb 82f
10:30pm  -   -   -  29 38 mph 1013mb 82f
10:20pm  -   -   -  29 38 mph 1013mb 82f
10:10pm  -   -   -  29 36 mph 1013mb 82f
10:00pm  -   -   -  27 36 mph 1013mb 82f
9:50pm 11ft 8s 6s 29 36 mph 1013mb 82f
9:40pm 11ft  -  6s 27 36 mph 1013mb 82f
9:30pm  -   -   -  27 34 mph 1013mb 82f
9:20pm  -   -   -  27 34 mph 1012.9mb 82f
9:10pm  -   -   -  27 36 mph 1012.6mb 82f
9:00pm  -   -   -  29 38 mph 1012.4mb 82f
8:50pm 11.5ft 9s 7s 29 38 mph 1012.3mb 82f
8:40pm  -   -   -  27 36 mph 1012.1mb 83f
8:30pm  -   -   -  29 38 mph 1012mb 82f
8:20pm  -   -   -  29 36 mph 1012mb 82f
8:10pm  -   -   -  29 36 mph 1011.8mb 83f
8:00pm  -   -   -  29 36 mph 1011.5mb 83f
7:50pm 11ft 9s 7s 29 38 mph 1011.5mb 83f
7:40pm  -   -   -  31 36 mph 1011.3mb 82f
7:30pm  -   -   -  29 38 mph 1011mb 83f
7:20pm  -   -   -  29 36 mph 1010.9mb 83f
7:10pm  -   -   -  31 40 mph 1010.8mb 83f
7:00pm  -   -   -  29 38 mph 1010.8mb 83f
6:50pm 11.5ft 9s 7s 29 36 mph 1010.5mb 83f
6:40pm  -   -   -  31 38 mph 1010.5mb 83f
6:30pm  -   -   -  31 40 mph 1010.4mb 83f
6:20pm  -   -   -  31 38 mph 1010.3mb 83f
6:10pm  -   -   -  31 40 mph 1010mb 83f
6:00pm  -   -   -  29 38 mph 1010mb -
5:50pm 13ft 9s 7s 29 38 mph 1010mb 83f
5:40pm  -   -   -  29 38 mph 1009.9mb 83f
5:30pm  -   -   -  29 36 mph 1010mb 83f
5:20pm  -   -   -  29 38 mph 1010mb 83f
5:10pm  -   -   -  29 38 mph 1009.9mb 83f
5:00pm  -   -   -  29 36 mph 1009.6mb 83f
4:50pm 11.5ft 9s 7s 29 36 mph 1009.6mb 83f
4:40pm  -   -   -  31 38 mph 1009.5mb 83f
4:30pm  -   -   -  29 38 mph 1009.5mb 83f
4:20pm  -   -   -  29 38 mph 1009.5mb 83f
4:10pm  -   -   -  29 38 mph 1009.6mb 83f
4:00pm  -   -   -  31 38 mph 1009.5mb 83f
3:50pm 11.5ft 9s 6s 29 38 mph 1009.6mb 83f
3:40pm 11.5ft  -  6s 31 38 mph 1009.5mb 83f
3:30pm  -   -   -  29 38 mph 1009.5mb 83f
3:20pm  -   -   -  31 38 mph 1009.5mb 83f
3:10pm  -   -   -  31 38 mph 1009.5mb 83f
3:00pm  -   -   -  31 40 mph 1009.8mb 83f
2:50pm 10.5ft 10s 6s 29 36 mph 1009.9mb 83f
2:40pm 10.5ft  -  6s 29 36 mph 1010.1mb 83f
2:30pm  -   -   -  27 34 mph 1010.4mb 83f
2:20pm  -   -   -  29 36 mph 1010.5mb 83f
2:10pm  -   -   -  29 36 mph 1010.6mb 83f
2:00pm  -   -   -  29 36 mph 1010.6mb 83f
1:50pm 11ft 9s 7s 27 36 mph 1010.6mb 83f
1:40pm 11ft  -  7s 27 36 mph 1010.8mb 83f
1:30pm  -   -   -  27 34 mph 1011mb 83f
1:20pm  -   -   -  29 34 mph 1011.1mb 83f
1:10pm  -   -   -  27 34 mph 1011.1mb 83f
1:00pm  -   -   -  29 36 mph 1011.1mb 83f
12:50pm 10ft 9s 6s 29 36 mph 1011.3mb 83f
12:40pm  -   -   -  29 36 mph 1011.5mb 83f
12:30pm  -   -   -  29 34 mph 1011.6mb 83f
12:20pm  -   -   -  29 36 mph 1011.8mb 83f
12:10pm  -   -   -  27 34 mph 1011.9mb 83f
12:00pm  -   -   -  27 34 mph 1012mb 83f
11:50am 10ft 8s 6s 29 34 mph 1012mb 83f
11:40am  -   -   -  27 34 mph 1012.1mb 83f
11:30am  -   -   -  27 34 mph 1012.5mb 83f
11:20am  -   -   -  27 34 mph 1012.5mb 83f
11:10am  -   -   -  25 34 mph 1012.6mb 83f
11:00am  -   -   -  27 34 mph 1012.5mb 83f
10:50am 10.5ft 8s 6s 27 31 mph 1012.5mb 83f
10:40am 10.5ft  -  6s 27 31 mph 1012.6mb 83f
10:30am  -   -   -  27 34 mph 1012.6mb 83f
10:20am  -   -   -  27 31 mph 1012.6mb 83f
10:10am  -   -   -  27 38 mph 1012.8mb 83f
10:00am  -   -   -  29 38 mph 1012.8mb 83f
9:50am 10.5ft 8s 6s 27 34 mph 1012.9mb 83f
9:40am 10.5ft  -  6s 27 34 mph 1012.8mb 83f
9:30am  -   -   -  27 34 mph 1012.8mb 83f
9:20am  -   -   -  27 34 mph 1012.8mb 83f
9:10am  -   -   -  27 36 mph 1012.6mb 82f
9:00am  -   -   -  27 36 mph 1012.5mb 82f
8:50am 11ft 9s 6s 27 36 mph 1012.5mb 82f
8:40am 11ft  -  6s 29 36 mph 1012.5mb 82f
8:30am  -   -   -  27 36 mph 1012.5mb 82f
8:20am  -   -   -  29 36 mph 1012.5mb 82f
8:10am  -   -   -  27 36 mph 1012.5mb 82f
8:00am  -   -   -  27 34 mph 1012.5mb 82f
7:50am 10ft 9s 6s 27 34 mph 1012.3mb 82f
7:40am 10ft  -  6s 27 31 mph 1012.3mb 82f
7:30am  -   -   -  27 34 mph 1012.3mb 82f
7:20am  -   -   -  27 34 mph 1012.3mb 82f
7:10am  -   -   -  27 34 mph 1012.1mb 82f
7:00am  -   -   -  27 36 mph 1012mb 82f
6:50am 10.5ft 8s 7s 27 34 mph 1011.8mb 82f
6:40am  -   -   -  27 34 mph 1011.8mb -
6:30am  -   -   -  27 36 mph 1011.6mb 82f
6:20am  -   -   -  27 36 mph 1011.5mb 82f
6:10am  -   -   -  29 36 mph 1011.3mb 82f
6:00am  -   -   -  27 34 mph 1011.3mb 82f
5:50am 10.5ft 9s 6s 27 34 mph 1011.3mb 82f
5:40am  -   -   -  27 31 mph 1011.1mb 82f
5:30am  -   -   -  27 34 mph 1011.1mb -
5:20am  -   -   -  27 34 mph 1011.3mb 82f
5:10am  -   -   -  25 34 mph 1011.1mb 82f
5:00am  -   -   -  27 34 mph 1011.1mb 82f
4:50am 11ft 9s 7s 27 34 mph 1011.1mb 82f
4:40am  -   -   -  27 34 mph 1011.1mb 82f
4:30am  -   -   -  27 31 mph 1011.3mb 82f
4:20am  -   -   -  25 31 mph 1011.3mb 82f
4:10am  -   -   -  27 36 mph 1011.3mb 82f
4:00am  -   -   -  27 31 mph 1011.1mb 82f
3:50am 10.5ft 9s 6s 25 31 mph 1011.1mb 82f
3:40am 10.5ft  -  6s 27 31 mph 1011.3mb 82f
3:30am  -   -   -  25 31 mph 1011.1mb 82f
3:20am  -   -   -  25 31 mph 1011.3mb 82f
3:10am  -   -   -  27 34 mph 1011.3mb 82f
3:00am  -   -   -  27 31 mph 1011.4mb 82f
2:50am 10ft 9s 6s 27 31 mph 1011.5mb 82f
2:40am  -   -   -  25 34 mph 1011.3mb 82f
2:30am  -   -   -  25 31 mph 1011.1mb 82f
2:20am  -   -   -  27 34 mph 1011.1mb 82f
2:10am  -   -   -  27 34 mph 1011mb 82f
2:00am  -   -   -  25 31 mph 1011mb 82f
1:50am 10ft 8s 6s 27 34 mph 1011mb 83f
1:40am 10ft  -  6s 25 31 mph 1011.1mb 83f
1:30am  -   -   -  25 29 mph 1011.1mb 83f
1:20am  -   -   -  25 34 mph 1011.1mb 83f
1:10am  -   -   -  25 31 mph 1011.1mb 82f
1:00am  -   -   -  27 36 mph 1011mb 83f
12:50am 10.5ft 8s 6s 29 36 mph 1011mb 82f
12:40am 10.5ft  -  6s 29 36 mph 1011mb 83f
12:30am  -   -   -  27 34 mph 1011mb 83f
12:20am  -   -   -  27 38 mph 1011.3mb 83f
12:10am  -   -   -  27 31 mph 1011.4mb 83f
12:00am  -   -   -  25 31 mph 1011.6mb 83f
Wed 05/24 11:50pm 10.5ft 9s 6s 27 36 mph 1011.8mb 83f
11:40pm  -   -   -  27 36 mph 1011.9mb 83f
11:30pm  -   -   -  27 34 mph 1012mb 83f
11:20pm  -   -   -  25 34 mph 1012mb 83f
11:10pm  -   -   -  27 36 mph 1012mb 83f
11:00pm  -   -   -  27 34 mph 1011.9mb 83f
10:50pm 10ft 8s 6s 27 36 mph 1011.8mb 83f
10:40pm  -   -   -  27 34 mph 1011.8mb 83f
10:30pm  -   -   -  27 34 mph 1011.8mb 83f
10:20pm  -   -   -  27 34 mph 1011.6mb 83f
10:10pm  -   -   -  29 36 mph 1011.5mb 83f
10:00pm  -   -   -  27 34 mph 1011.8mb 83f
9:50pm 9ft 9s 6s 27 34 mph 1011.8mb 83f
9:40pm 9ft  -  6s 27 34 mph 1011.8mb 83f
9:30pm  -   -   -  29 38 mph 1011.6mb 83f
9:20pm  -   -   -  27 34 mph 1011.6mb 83f
9:10pm  -   -   -  27 34 mph 1011.5mb 83f
9:00pm  -   -   -  27 34 mph 1011.5mb 83f
8:50pm 10ft 8s 6s 27 34 mph 1011.5mb 83f
8:40pm  -   -   -  29 34 mph 1011.5mb 83f
8:30pm  -   -   -  25 34 mph 1011.5mb 83f
8:20pm  -   -   -  25 29 mph 1011.5mb 83f
8:10pm  -   -   -  25 34 mph 1011.5mb 83f
8:00pm  -   -   -  25 29 mph 1011.4mb 83f
7:50pm 9ft 8s 6s 27 34 mph 1011.3mb 83f
7:40pm  -   -   -  25 29 mph 1011mb 83f
7:30pm  -   -   -  25 31 mph 1010.9mb 83f
7:20pm  -   -   -  25 31 mph 1010.9mb 83f
7:10pm  -   -   -  22 29 mph 1010.6mb 83f
7:00pm  -   -   -  25 31 mph 1010.6mb 83f
6:50pm 9ft 9s 6s 25 29 mph 1010.4mb 83f
6:40pm 9ft  -  6s 25 29 mph 1010.3mb 83f
6:30pm  -   -   -  22 29 mph 1010.3mb 83f
6:20pm  -   -   -  22 29 mph 1010mb 83f
6:10pm  -   -   -  22 29 mph 1010mb 83f
6:00pm  -   -   -  22 27 mph 1009.8mb 83f
5:50pm 9ft 8s 6s 25 29 mph 1009.6mb 83f
5:40pm  -   -   -  27 34 mph 1009.5mb 83f
5:30pm  -   -   -  27 34 mph 1009.5mb 83f
5:20pm  -   -   -  25 31 mph 1009.5mb 83f
5:10pm  -   -   -  25 31 mph 1009.4mb 83f
5:00pm  -   -   -  25 31 mph 1009.5mb 83f
4:50pm 10ft 8s 6s 22 29 mph 1009.5mb 83f
4:40pm 10ft  -  6s 25 31 mph 1009.4mb 83f
4:30pm  -   -   -  25 27 mph 1009.4mb 83f
4:20pm  -   -   -  25 29 mph 1009.4mb 83f
4:10pm  -   -   -  22 29 mph 1009.4mb 83f
4:00pm  -   -   -  25 34 mph 1009.3mb 83f
3:50pm 9.5ft 8s 6s 25 34 mph 1009.1mb 83f
3:40pm  -   -   -  27 36 mph 1009.1mb 83f
3:30pm  -   -   -  27 36 mph 1009.3mb 83f
3:20pm  -   -   -  27 34 mph 1009.4mb 83f
3:10pm  -   -   -  27 34 mph 1009.5mb 83f
3:00pm  -   -   -  27 34 mph 1009.6mb 83f
2:50pm 9ft 8s 6s 25 31 mph 1009.8mb 83f
2:40pm  -   -   -  25 36 mph 1009.8mb 83f
2:30pm  -   -   -  25 31 mph 1009.8mb 83f
2:20pm  -   -   -  25 29 mph 1009.9mb 83f
2:10pm  -   -   -  27 36 mph 1010mb 83f
2:00pm  -   -   -  27 34 mph 1010mb 83f
1:50pm 9ft 8s 6s 27 36 mph 1010.1mb 83f
1:40pm 9ft  -  6s 27 34 mph 1010.1mb 83f
1:30pm  -   -   -  27 34 mph 1010.4mb 83f
1:20pm  -   -   -  27 34 mph 1010.5mb 83f
1:10pm  -   -   -  25 36 mph 1010.5mb 83f
1:00pm  -   -   -  25 29 mph 1010.9mb 83f
12:50pm 8.5ft 8s 6s 22 29 mph 1011.1mb 83f
12:40pm  -   -   -  25 31 mph 1011.1mb 83f
12:30pm  -   -   -  25 31 mph 1011.3mb 83f
12:20pm  -   -   -  25 31 mph 1011.5mb 83f
12:10pm  -   -   -  25 31 mph 1011.6mb 83f
12:00pm  -   -   -  22 29 mph 1012mb 83f
11:50am 9ft 8s 6s 25 31 mph 1012mb 83f
11:40am  -   -   -  25 31 mph 1012mb 83f
11:30am  -   -   -  25 34 mph 1012.1mb 83f
11:20am  -   -   -  22 29 mph 1012.5mb 83f
11:10am  -   -   -  25 31 mph 1012.5mb 83f
11:00am  -   -   -  25 31 mph 1012.5mb 83f
10:50am 8ft 8s 6s 27 34 mph 1012.6mb 83f
10:40am 8ft  -  6s 25 29 mph 1012.5mb 83f
10:30am  -   -   -  22 29 mph 1012.8mb 83f
10:20am  -   -   -  22 29 mph 1012.8mb 82f
10:10am  -   -   -  25 31 mph 1012.8mb 83f
10:00am  -   -   -  22 29 mph 1012.9mb 82f
9:50am 8ft 8s 6s 22 29 mph 1012.9mb 82f
9:40am 8ft  -  6s 22 29 mph 1013mb 82f
9:30am  -   -   -  22 29 mph 1013mb 82f
9:20am  -   -   -  22 29 mph 1012.9mb 82f
9:10am  -   -   -  22 29 mph 1012.9mb 82f
9:00am  -   -   -  22 27 mph 1012.8mb 82f
8:50am 7.5ft 8s 6s 22 29 mph 1012.6mb 82f
8:40am 7.5ft  -  6s 22 29 mph 1012.6mb 82f
8:30am  -   -   -  22 29 mph 1012.6mb 82f
8:20am  -   -   -  25 31 mph 1012.5mb 82f
8:10am  -   -   -  25 31 mph 1012.5mb 82f
8:00am  -   -   -  22 27 mph 1012.5mb 82f
7:50am 7.5ft 8s 6s 22 31 mph 1012.5mb 82f
7:40am  -   -   -  22 27 mph 1012.5mb 82f
7:30am  -   -   -  22 29 mph 1012.3mb 82f
7:20am  -   -   -  22 27 mph 1012.3mb 82f
7:10am  -   -   -  22 29 mph 1012.1mb 82f
7:00am  -   -   -  22 29 mph 1012mb 82f
6:50am 8ft 7s 6s 22 29 mph 1011.8mb 82f
6:40am  -   -   -  22 27 mph 1011.6mb 82f
6:30am  -   -   -  22 27 mph 1011.5mb 82f
6:20am  -   -   -  22 27 mph 1011.5mb 82f
6:10am  -   -   -  20 27 mph 1011.3mb 82f
6:00am  -   -   -  22 29 mph 1011.1mb 82f
5:50am 7.5ft 7s 6s 20 27 mph 1011.1mb 82f
5:40am  -   -   -  22 29 mph 1011mb 82f
5:30am  -   -   -  20 27 mph 1010.9mb 82f
5:20am  -   -   -  22 27 mph 1010.8mb 82f
5:10am  -   -   -  22 27 mph 1010.9mb 82f
5:00am  -   -   -  22 27 mph 1010.8mb -
4:50am 7ft 8s 6s 20 27 mph 1010.8mb 82f
4:40am  -   -   -  22 29 mph 1010.6mb 82f
4:30am  -   -   -  20 27 mph 1010.5mb 82f
4:20am  -   -   -  22 31 mph 1010.5mb 82f
4:10am  -   -   -  22 29 mph 1010.5mb 82f
4:00am  -   -   -  22 27 mph 1010.8mb 82f
3:50am 7.5ft 8s 6s 22 29 mph 1010.9mb 82f
3:40am 7.5ft  -  6s 22 29 mph 1010.6mb 82f
3:30am  -   -   -  22 27 mph 1010.5mb 82f
3:20am  -   -   -  22 29 mph 1010.5mb 82f
3:10am  -   -   -  22 31 mph 1010.5mb 82f
3:00am  -   -   -  22 29 mph 1010.6mb 82f
2:50am 7ft 8s 6s 22 31 mph 1010.6mb 82f
2:40am 7ft  -  6s 25 31 mph 1010.8mb 82f
2:30am  -   -   -  25 31 mph 1011mb 82f
2:20am  -   -   -  25 29 mph 1011mb 82f
2:10am  -   -   -  25 29 mph 1011mb 82f
2:00am  -   -   -  25 29 mph 1011mb 82f
1:50am 7ft 8s 5s 25 29 mph 1011.1mb 82f
1:40am  -   -   -  22 29 mph 1011.3mb 82f
1:30am  -   -   -  22 29 mph 1011.4mb 82f
1:20am  -   -   -  25 29 mph 1011.4mb 82f
1:10am  -   -   -  22 27 mph 1011.5mb 82f
1:00am  -   -   -  22 29 mph 1011.5mb 82f
12:50am 7.5ft 7s 6s 22 29 mph 1011.5mb 82f
12:40am 7.5ft  -  6s 25 29 mph 1011.6mb 82f
12:30am  -   -   -  22 29 mph 1011.8mb 82f
12:20am  -   -   -  25 29 mph 1011.8mb 82f
12:10am  -   -   -  22 29 mph 1011.9mb 82f
12:00am  -   -   -  25 29 mph 1011.9mb 82f
Tue 05/23 11:50pm 7ft 7s 5s 22 29 mph 1012mb 83f
11:40pm  -   -   -  25 31 mph 1011.9mb 82f
11:30pm  -   -   -  25 29 mph 1012mb 82f
11:20pm  -   -   -  25 29 mph 1012mb 82f
11:10pm  -   -   -  25 29 mph 1012mb 83f
11:00pm  -   -   -  25 29 mph 1012.3mb 83f
10:50pm 7ft 8s 5s 25 31 mph 1012mb 83f
10:40pm 7ft  -  5s 22 27 mph 1012.3mb 83f
10:30pm  -   -   -  25 31 mph 1012.3mb 83f
10:20pm  -   -   -  25 29 mph 1012mb 83f
10:10pm  -   -   -  25 31 mph 1012.1mb 83f
10:00pm  -   -   -  25 29 mph 1012mb -
9:50pm 7ft 8s 5s 22 29 mph 1012.1mb 83f
9:40pm 7ft  -  5s 25 29 mph 1012mb 83f
9:30pm  -   -   -  22 27 mph 1012.1mb 83f
9:20pm  -   -   -  25 31 mph 1012.1mb 83f
9:10pm  -   -   -  25 31 mph 1012mb 83f
9:00pm  -   -   -  22 31 mph 1011.9mb 83f
8:50pm 6ft 7s 5s 25 29 mph 1011.9mb 83f
8:40pm 6ft  -  5s 22 29 mph 1011.8mb 83f
8:30pm  -   -   -  22 27 mph 1011.6mb 83f
8:20pm  -   -   -  22 29 mph 1011.5mb 83f
8:10pm  -   -   -  22 27 mph 1011.5mb 83f
8:00pm  -   -   -  22 29 mph 1011.5mb 83f
7:50pm 6.5ft 7s 5s 20 27 mph 1011.4mb -
7:40pm  -   -   -  22 27 mph 1011.4mb 83f
7:30pm  -   -   -  22 27 mph 1011.3mb 83f
7:20pm  -   -   -  22 27 mph 1011mb 83f
7:10pm  -   -   -  22 27 mph 1011mb 83f
7:00pm  -   -   -  22 27 mph 1010.9mb -
6:50pm 6ft 7s 5s 20 27 mph 1011mb 83f
6:40pm 6ft  -  5s 20 27 mph 1010.8mb 83f
6:30pm  -   -   -  22 27 mph 1010.6mb 83f
6:20pm  -   -   -  22 27 mph 1010.9mb 83f
6:10pm  -   -   -  22 27 mph 1010.6mb 83f
6:00pm  -   -   -  22 27 mph 1010.5mb 83f
5:50pm 7ft 7s 5s 22 27 mph 1010.5mb 83f
5:40pm 7ft  -  5s 22 27 mph 1010.5mb 83f
5:30pm  -   -   -  22 29 mph 1010.5mb 83f
5:20pm  -   -   -  22 27 mph 1010.5mb 83f
5:10pm  -   -   -  22 27 mph 1010.6mb 83f
5:00pm  -   -   -  22 27 mph 1010.6mb 83f
4:50pm 6ft 7s 5s 22 27 mph 1010.6mb 83f
4:40pm  -   -   -  22 27 mph 1010.5mb 83f
4:30pm  -   -   -  22 29 mph 1010.5mb 83f
4:20pm  -   -   -  25 31 mph 1010.3mb 83f
4:10pm  -   -   -  25 29 mph 1010.4mb 83f
4:00pm  -   -   -  25 29 mph 1010.4mb -
3:50pm 6ft 7s 5s 22 29 mph 1010.5mb 83f
3:40pm  -   -   -  25 29 mph 1010.6mb 83f
3:30pm  -   -   -  22 27 mph 1010.8mb 83f
3:20pm  -   -   -  22 29 mph 1011mb 83f
3:10pm  -   -   -  22 27 mph 1011mb 83f
3:00pm  -   -   -  22 27 mph 1011.3mb 83f
2:50pm 6ft 7s 5s 22 27 mph 1011.5mb 83f
2:40pm 6ft  -  5s 20 25 mph 1011.5mb 83f
2:30pm  -   -   -  22 27 mph 1011.6mb 83f
2:20pm  -   -   -  20 27 mph 1011.8mb 83f
2:10pm  -   -   -  20 25 mph 1012mb 83f
2:00pm  -   -   -  22 27 mph 1011.9mb 83f
1:50pm 6ft 7s 5s 22 27 mph 1012mb 83f
1:40pm 6ft  -  5s 20 27 mph 1012.3mb 83f
1:30pm  -   -   -  22 25 mph 1012.3mb 83f
1:20pm  -   -   -  22 25 mph 1012.5mb 83f
1:10pm  -   -   -  22 27 mph 1012.5mb 83f
1:00pm  -   -   -  22 27 mph 1012.6mb -
12:50pm 6ft 7s 5s 22 27 mph 1012.9mb 83f
12:40pm  -   -   -  20 25 mph 1013mb 83f
12:30pm  -   -   -  22 27 mph 1013mb 83f
12:20pm  -   -   -  22 27 mph 1013.1mb 83f
12:10pm  -   -   -  22 25 mph 1013.3mb 83f
12:00pm  -   -   -  20 25 mph 1013.4mb 83f
11:50am 6ft 7s 5s 20 25 mph 1013.5mb 83f
11:40am  -   -   -  20 25 mph 1013.6mb 83f
11:30am  -   -   -  20 25 mph 1013.8mb 83f
11:20am  -   -   -  20 25 mph 1013.8mb 83f
11:10am  -   -   -  20 27 mph 1013.9mb 83f
11:00am  -   -   -  20 25 mph 1014mb 83f
10:50am 6ft 7s 5s 20 29 mph 1014mb 83f
10:40am 6ft  -  5s 20 25 mph 1014.1mb 83f
10:30am  -   -   -  22 27 mph 1014.1mb 83f
10:20am  -   -   -  22 27 mph 1014.1mb 83f
10:10am  -   -   -  22 27 mph 1014.4mb 83f
10:00am  -   -   -  20 25 mph 1014.5mb 83f
9:50am 7ft 7s 6s 22 29 mph 1014.5mb 83f
9:40am  -   -   -  22 27 mph 1014.4mb 83f
9:30am  -   -   -  22 27 mph 1014.4mb 83f
9:20am  -   -   -  22 27 mph 1014.5mb 83f
9:10am  -   -   -  22 27 mph 1014.5mb 83f
9:00am  -   -   -  22 27 mph 1014.5mb 83f
8:50am 6ft 7s 5s 22 27 mph 1014.5mb 83f
8:40am  -   -   -  20 27 mph 1014.5mb 83f
8:30am  -   -   -  20 25 mph 1014.5mb 83f
8:20am  -   -   -  20 27 mph 1014.3mb 83f
8:10am  -   -   -  22 27 mph 1014.1mb 83f
8:00am  -   -   -  22 27 mph 1014mb 83f
7:50am 6ft 8s 5s 22 27 mph 1013.9mb 83f
7:40am  -   -   -  20 27 mph 1013.9mb 83f
7:30am  -   -   -  22 27 mph 1013.6mb 82f
7:20am  -   -   -  20 27 mph 1013.6mb 83f
7:10am  -   -   -  22 29 mph 1013.4mb 83f
7:00am  -   -   -  20 25 mph 1013.4mb 83f
6:50am 6ft 7s 5s 20 25 mph 1013.1mb 83f
6:40am 6ft  -  5s 18 22 mph 1013.1mb 83f
6:30am  -   -   -  20 25 mph 1013mb 83f
6:20am  -   -   -  20 25 mph 1012.9mb 83f
6:10am  -   -   -  20 25 mph 1012.6mb 83f
6:00am  -   -   -  20 25 mph 1012.5mb 83f
5:50am 6ft 7s 5s 20 25 mph 1012.5mb 83f
5:40am 6ft  -  5s 20 25 mph 1012.3mb 83f
5:30am  -   -   -  18 22 mph 1012.1mb 83f
5:20am  -   -   -  20 25 mph 1012.1mb 83f
5:10am  -   -   -  20 25 mph 1012mb 83f
5:00am  -   -   -  20 25 mph 1012mb -
4:50am 6.5ft 6s 5s 20 25 mph 1011.9mb 83f
4:40am  -   -   -  20 27 mph 1011.8mb 83f
4:30am  -   -   -  20 25 mph 1011.6mb 83f
4:20am  -   -   -  20 27 mph 1011.5mb 83f
4:10am  -   -   -  22 29 mph 1011.4mb 83f
4:00am  -   -   -  22 27 mph 1011.4mb 83f
3:50am 6ft 7s 5s 20 25 mph 1011.4mb 83f
3:40am 6ft  -  5s 20 25 mph 1011.4mb 83f
3:30am  -   -   -  20 27 mph 1011.4mb -
3:20am  -   -   -  20 25 mph 1011.4mb 83f
3:10am  -   -   -  20 25 mph 1011.3mb 83f
3:00am  -   -   -  20 25 mph 1011.4mb -
2:50am 6ft 7s 5s 20 27 mph 1011.3mb 83f
2:40am 6ft  -  5s 20 27 mph 1011.3mb 83f
2:30am  -   -   -  22 29 mph 1011.4mb 83f
2:20am  -   -   -  22 27 mph 1011.5mb 83f
2:10am  -   -   -  22 25 mph 1011.6mb -
2:00am  -   -   -  22 27 mph 1011.8mb 83f
1:50am 6ft 7s 5s 22 29 mph 1011.8mb 83f
1:40am  -   -   -  22 27 mph 1011.8mb 83f
1:30am  -   -   -  22 27 mph 1011.9mb 83f
1:20am  -   -   -  22 29 mph 1012mb 83f
1:10am  -   -   -  20 25 mph 1012mb 83f
1:00am  -   -   -  22 27 mph 1012mb 83f
12:50am 6ft 7s 5s 22 27 mph 1012.1mb 83f
12:40am 6ft  -  5s 20 25 mph 1012.3mb 83f
12:30am  -   -   -  20 27 mph 1012.5mb 83f
12:20am  -   -   -  20 25 mph 1012.5mb 83f
12:10am  -   -   -  22 27 mph 1012.8mb 83f
12:00am  -   -   -  22 27 mph 1012.6mb 83f
Mon 05/22 11:50pm 5.5ft 6s 5s 20 25 mph 1012.8mb 83f
11:40pm  -   -   -  20 25 mph 1012.9mb 83f
11:30pm  -   -   -  20 25 mph 1013mb 83f
11:20pm  -   -   -  20 25 mph 1013.4mb 83f
11:10pm  -   -   -  20 25 mph 1013.4mb 83f
11:00pm  -   -   -  20 25 mph 1013.5mb 83f
10:50pm 5.5ft 7s 5s 20 25 mph 1013.6mb 83f
10:40pm  -   -   -  20 25 mph 1013.6mb 83f
10:30pm  -   -   -  20 25 mph 1013.8mb 83f
10:20pm  -   -   -  20 25 mph 1013.9mb 83f
10:10pm  -   -   -  20 25 mph 1013.9mb 83f
10:00pm  -   -   -  20 27 mph 1013.6mb 83f
9:50pm 5.5ft 7s 5s 22 27 mph 1013.5mb 83f
9:40pm 5.5ft  -  5s 20 27 mph 1013.6mb 83f
9:30pm  -   -   -  20 25 mph 1013.6mb 83f
9:20pm  -   -   -  20 25 mph 1013.5mb 83f
9:10pm  -   -   -  20 25 mph 1013.5mb 83f
9:00pm  -   -   -  20 27 mph 1013.4mb 83f
8:50pm 6ft 7s 5s 20 25 mph 1013.3mb 83f
8:40pm  -   -   -  22 27 mph 1013mb 83f
8:30pm  -   -   -  20 27 mph 1012.9mb 83f
8:20pm  -   -   -  20 25 mph 1012.8mb 83f
8:10pm  -   -   -  20 27 mph 1012.8mb -